createdAt,value
2023-05-14T00:02:38.447Z,16.77
2023-05-14T00:05:33.619Z,15.75
2023-05-14T00:08:20.820Z,16.67
2023-05-14T00:11:09.043Z,17.30
2023-05-14T00:13:56.339Z,16.67
2023-05-14T00:16:45.875Z,17.08
2023-05-14T00:19:33.014Z,18.20
2023-05-14T00:22:20.291Z,18.45
2023-05-14T00:25:08.324Z,16.98
2023-05-14T00:27:56.745Z,18.63
2023-05-14T00:30:44.785Z,18.50
2023-05-14T00:33:35.182Z,18.88
2023-05-14T00:36:26.950Z,18.55
2023-05-14T00:39:15.314Z,18.17
2023-05-14T00:42:02.459Z,19.17
2023-05-14T00:44:49.647Z,17.45
2023-05-14T00:47:39.359Z,17.83
2023-05-14T00:50:28.795Z,16.85
2023-05-14T00:53:18.633Z,18.35
2023-05-14T00:56:08.792Z,17.92
2023-05-14T00:58:55.901Z,18.25
2023-05-14T01:01:43.308Z,19.30
2023-05-14T01:04:35.259Z,18.92
2023-05-14T01:07:51.355Z,19.27
2023-05-14T01:11:09.191Z,20.20
2023-05-14T01:14:22.005Z,19.75
2023-05-14T01:17:12.784Z,20.45
2023-05-14T01:20:00.656Z,20.05
2023-05-14T01:22:47.936Z,20.77
2023-05-14T01:25:35.887Z,20.75
2023-05-14T01:28:31.710Z,21.35
2023-05-14T01:31:28.775Z,21.05
2023-05-14T01:34:19.398Z,21.02
2023-05-14T01:37:07.559Z,23.95
2023-05-14T01:39:56.526Z,23.88
2023-05-14T01:42:44.640Z,21.88
2023-05-14T01:45:37.795Z,23.38
2023-05-14T01:48:25.019Z,23.38
2023-05-14T01:51:15.799Z,24.63
2023-05-14T01:54:03.050Z,24.48
2023-05-14T01:56:50.173Z,23.50
2023-05-14T01:59:37.247Z,23.17
2023-05-14T02:02:25.818Z,22.85
2023-05-14T02:05:13.489Z,24.55
2023-05-14T02:08:00.810Z,23.92
2023-05-14T02:10:49.377Z,22.25
2023-05-14T02:13:37.787Z,22.05
2023-05-14T02:16:25.017Z,23.15
2023-05-14T02:19:12.294Z,21.63
2023-05-14T02:22:01.679Z,21.75
2023-05-14T02:24:49.801Z,21.65
2023-05-14T02:27:41.764Z,20.83
2023-05-14T02:30:30.090Z,16.42
2023-05-14T02:33:19.746Z,22.02
2023-05-14T02:36:07.251Z,21.77
2023-05-14T02:38:58.497Z,23.38
2023-05-14T02:41:45.698Z,20.65
2023-05-14T02:44:32.911Z,22.63
2023-05-14T02:47:20.040Z,22.33
2023-05-14T02:50:08.052Z,21.45
2023-05-14T02:52:56.714Z,21.33
2023-05-14T02:55:46.396Z,22.42
2023-05-14T02:58:36.665Z,24.48
2023-05-14T03:01:24.300Z,24.55
2023-05-14T03:04:14.068Z,25.38
2023-05-14T03:07:01.815Z,25.00
2023-05-14T03:09:51.607Z,25.67
2023-05-14T03:12:38.788Z,26.20
2023-05-14T03:15:26.092Z,27.40
2023-05-14T03:18:15.198Z,25.92
2023-05-14T03:21:03.865Z,27.17
2023-05-14T03:23:52.151Z,26.95
2023-05-14T03:26:39.714Z,28.17
2023-05-14T03:29:26.887Z,28.38
2023-05-14T03:32:14.581Z,28.52
2023-05-14T03:35:04.071Z,29.70
2023-05-14T03:37:53.022Z,29.42
2023-05-14T03:40:40.264Z,28.77
2023-05-14T03:43:27.402Z,28.90
2023-05-14T03:46:14.536Z,28.13
2023-05-14T03:49:01.785Z,27.30
2023-05-14T03:51:49.104Z,29.48
2023-05-14T03:54:38.551Z,29.55
2023-05-14T03:57:30.379Z,28.83
2023-05-14T04:00:17.678Z,29.93
2023-05-14T04:03:04.880Z,30.08
2023-05-14T04:05:52.031Z,29.00
2023-05-14T04:08:41.830Z,29.33
2023-05-14T04:11:29.036Z,30.48
2023-05-14T04:14:16.258Z,28.23
2023-05-14T04:17:05.806Z,29.30
2023-05-14T04:19:55.200Z,28.52
2023-05-14T04:22:42.441Z,28.05
2023-05-14T04:25:30.524Z,26.20
2023-05-14T04:28:17.714Z,31.55
2023-05-14T04:31:09.579Z,30.55
2023-05-14T04:33:56.856Z,31.75
2023-05-14T04:36:44.039Z,32.05
2023-05-14T04:39:31.190Z,30.83
2023-05-14T04:42:21.418Z,29.23
2023-05-14T04:45:09.241Z,30.75
2023-05-14T04:47:56.487Z,29.60
2023-05-14T04:50:53.300Z,29.20
2023-05-14T04:53:40.675Z,29.30
2023-05-14T04:56:27.802Z,27.73
2023-05-14T04:59:15.387Z,26.02
2023-05-14T05:02:02.533Z,27.20
2023-05-14T05:04:49.674Z,26.20
2023-05-14T05:07:36.978Z,25.35
2023-05-14T05:10:24.513Z,25.60
2023-05-14T05:13:11.911Z,25.58
2023-05-14T05:15:59.167Z,26.33
2023-05-14T05:18:46.498Z,27.77
2023-05-14T05:21:33.972Z,26.13
2023-05-14T05:24:21.170Z,25.23
2023-05-14T05:27:08.591Z,24.67
2023-05-14T05:29:56.143Z,25.27
2023-05-14T05:32:45.754Z,26.02
2023-05-14T05:35:37.814Z,25.20
2023-05-14T05:38:24.912Z,19.33
2023-05-14T05:41:12.350Z,23.25
2023-05-14T05:43:59.580Z,25.15
2023-05-14T05:46:46.809Z,23.48
2023-05-14T05:49:37.705Z,21.52
2023-05-14T05:52:24.947Z,22.42
2023-05-14T05:55:12.408Z,20.35
2023-05-14T05:58:00.064Z,19.63
2023-05-14T06:01:02.476Z,19.08
2023-05-14T06:03:51.929Z,20.95
2023-05-14T06:06:39.304Z,18.92
2023-05-14T06:09:27.797Z,20.10
2023-05-14T06:12:16.452Z,21.10
2023-05-14T06:15:04.078Z,22.30
2023-05-14T06:17:51.276Z,22.52
2023-05-14T06:20:42.407Z,21.98
2023-05-14T06:23:30.037Z,22.33
2023-05-14T06:26:17.332Z,22.98
2023-05-14T06:29:04.746Z,21.60
2023-05-14T06:31:52.131Z,22.08
2023-05-14T06:34:39.348Z,22.33
2023-05-14T06:37:26.569Z,22.65
2023-05-14T06:40:15.952Z,20.98
2023-05-14T06:43:06.735Z,21.13
2023-05-14T06:45:54.134Z,20.83
2023-05-14T06:48:41.435Z,20.05
2023-05-14T06:51:28.682Z,20.27
2023-05-14T06:54:15.917Z,19.92
2023-05-14T06:57:03.397Z,19.15
2023-05-14T07:00:21.885Z,19.70
2023-05-14T07:03:09.250Z,19.00
2023-05-14T07:05:56.874Z,20.17
2023-05-14T07:08:50.134Z,17.30
2023-05-14T07:11:37.353Z,15.05
2023-05-14T07:14:24.696Z,15.18
2023-05-14T07:17:15.255Z,14.88
2023-05-14T07:20:05.662Z,16.63
2023-05-14T07:22:53.540Z,15.90
2023-05-14T07:25:40.879Z,15.70
2023-05-14T07:28:30.646Z,13.98
2023-05-14T07:31:18.343Z,13.55
2023-05-14T07:34:05.719Z,13.88
2023-05-14T07:36:53.219Z,12.55
2023-05-14T07:39:44.631Z,12.60
2023-05-14T07:42:35.880Z,14.43
2023-05-14T07:45:24.432Z,13.88
2023-05-14T07:48:12.183Z,13.88
2023-05-14T07:51:00.235Z,15.10
2023-05-14T07:53:47.468Z,14.27
2023-05-14T07:56:34.798Z,14.50
2023-05-14T07:59:23.218Z,13.50
2023-05-14T08:02:13.893Z,13.30
2023-05-14T08:05:05.859Z,12.00
2023-05-14T08:08:43.741Z,11.60
2023-05-14T08:11:33.218Z,11.85
2023-05-14T08:14:21.581Z,13.02
2023-05-14T08:17:08.818Z,12.13
2023-05-14T08:19:56.439Z,11.70
2023-05-14T08:22:45.828Z,12.38
2023-05-14T08:25:33.536Z,11.15
2023-05-14T08:28:24.825Z,11.63
2023-05-14T08:31:14.672Z,11.82
2023-05-14T08:34:03.592Z,11.82
2023-05-14T08:36:53.390Z,11.27
2023-05-14T08:39:40.564Z,9.63
2023-05-14T08:42:29.125Z,11.50
2023-05-14T08:45:21.123Z,10.77
2023-05-14T08:48:11.208Z,11.95
2023-05-14T08:50:59.830Z,10.75
2023-05-14T08:53:48.037Z,10.90
2023-05-14T08:56:36.156Z,9.43
2023-05-14T08:59:36.171Z,9.63
2023-05-14T09:02:31.209Z,9.95
2023-05-14T09:05:20.495Z,9.07
2023-05-14T09:08:07.985Z,9.40
2023-05-14T09:10:56.406Z,8.52
2023-05-14T09:13:43.669Z,8.98
2023-05-14T09:16:31.514Z,9.52
2023-05-14T09:19:21.912Z,9.23
2023-05-14T09:22:11.965Z,9.55
2023-05-14T09:25:17.947Z,8.15
2023-05-14T09:28:11.853Z,8.68
2023-05-14T09:31:02.158Z,13.98
2023-05-14T09:33:53.101Z,9.68
2023-05-14T09:39:26.471Z,9.95
2023-05-14T09:42:14.848Z,11.43
2023-05-14T09:45:02.264Z,9.18
2023-05-14T09:47:52.302Z,9.10
2023-05-14T09:50:45.026Z,10.43
2023-05-14T09:53:35.972Z,9.18
2023-05-14T09:59:27.810Z,7.80
2023-05-14T10:02:26.838Z,7.15
2023-05-14T10:05:16.119Z,5.75
2023-05-14T10:08:34.930Z,5.63
2023-05-14T10:11:26.806Z,6.00
2023-05-14T10:14:37.233Z,6.63
2023-05-14T10:17:31.277Z,6.43
2023-05-14T10:20:19.062Z,6.07
2023-05-14T10:23:07.722Z,7.25
2023-05-14T10:25:56.452Z,7.07
2023-05-14T10:28:46.761Z,7.47
2023-05-14T10:31:56.674Z,8.82
2023-05-14T10:34:44.465Z,7.38
2023-05-14T10:37:36.231Z,7.05
2023-05-14T10:40:26.079Z,7.43
2023-05-14T10:43:16.550Z,6.28
2023-05-14T10:46:04.628Z,5.43
2023-05-14T10:48:51.985Z,5.75
2023-05-14T10:51:41.338Z,6.30
2023-05-14T10:54:29.469Z,4.93
2023-05-14T10:57:18.897Z,5.05
2023-05-14T11:00:09.382Z,6.32
2023-05-14T11:03:00.866Z,6.28
2023-05-14T11:05:49.095Z,6.35
2023-05-14T11:08:40.528Z,6.50
2023-05-14T11:11:28.748Z,6.55
2023-05-14T11:14:16.055Z,6.00
2023-05-14T11:17:03.594Z,6.05
2023-05-14T11:19:51.368Z,5.93
2023-05-14T11:22:40.007Z,4.70
2023-05-14T11:25:29.347Z,4.60
2023-05-14T11:28:24.253Z,5.00
2023-05-14T11:31:19.076Z,5.20
2023-05-14T11:34:08.844Z,5.97
2023-05-14T11:36:57.217Z,4.88
2023-05-14T11:39:52.595Z,5.13
2023-05-14T11:42:42.183Z,4.47
2023-05-14T11:45:33.265Z,4.32
2023-05-14T11:48:22.037Z,5.05
2023-05-14T11:54:15.900Z,5.00
2023-05-14T11:57:08.645Z,4.55
2023-05-14T11:59:59.471Z,4.40
2023-05-14T12:02:52.885Z,4.47
2023-05-14T12:05:42.835Z,4.13
2023-05-14T12:08:31.674Z,4.35
2023-05-14T12:11:22.820Z,3.60
2023-05-14T12:14:29.485Z,3.97
2023-05-14T12:17:20.087Z,4.78
2023-05-14T12:20:11.752Z,5.88
2023-05-14T12:22:59.246Z,6.75
2023-05-14T12:25:55.643Z,6.57
2023-05-14T12:28:43.776Z,7.20
2023-05-14T12:31:33.340Z,6.85
2023-05-14T12:34:28.717Z,6.53
2023-05-14T12:37:16.419Z,5.53
2023-05-14T12:40:06.634Z,4.50
2023-05-14T12:42:56.081Z,5.32
2023-05-14T12:45:44.413Z,6.05
2023-05-14T12:48:31.669Z,4.72
2023-05-14T12:51:21.456Z,6.28
2023-05-14T12:54:09.193Z,6.78
2023-05-14T12:56:56.399Z,9.52
2023-05-14T12:59:47.631Z,17.05
2023-05-14T13:02:42.359Z,14.80
2023-05-14T13:05:33.371Z,13.82
2023-05-14T13:08:26.119Z,14.70
2023-05-14T13:11:13.778Z,11.38
2023-05-14T13:14:02.231Z,9.35
2023-05-14T13:16:49.989Z,9.57
2023-05-14T13:19:37.598Z,12.32
2023-05-14T13:22:24.907Z,12.82
2023-05-14T13:25:14.295Z,14.23
2023-05-14T13:28:01.735Z,14.60
2023-05-14T13:31:06.411Z,13.90
2023-05-14T13:33:54.831Z,13.43
2023-05-14T13:36:44.095Z,13.98
2023-05-14T13:39:35.607Z,13.98
2023-05-14T13:42:23.645Z,12.38
2023-05-14T13:45:11.838Z,11.10
2023-05-14T13:47:58.972Z,10.13
2023-05-14T13:51:38.952Z,9.73
2023-05-14T13:54:48.893Z,8.13
2023-05-14T13:57:40.245Z,7.80
2023-05-14T14:00:28.018Z,6.35
2023-05-14T14:03:15.324Z,5.72
2023-05-14T14:06:02.538Z,6.13
2023-05-14T14:08:52.246Z,5.80
2023-05-14T14:11:41.053Z,7.05
2023-05-14T14:14:28.564Z,7.60
2023-05-14T14:17:16.007Z,10.20
2023-05-14T14:20:09.958Z,6.03
2023-05-14T14:23:00.293Z,6.47
2023-05-14T14:25:47.880Z,5.95
2023-05-14T14:28:35.531Z,6.22
2023-05-14T14:31:22.772Z,5.93
2023-05-14T14:34:11.424Z,5.75
2023-05-14T14:36:58.729Z,5.55
2023-05-14T14:39:49.963Z,7.65
2023-05-14T14:42:38.166Z,5.72
2023-05-14T14:45:25.866Z,5.55
2023-05-14T14:48:44.062Z,4.50
2023-05-14T14:51:31.680Z,5.10
2023-05-14T14:54:21.454Z,4.53
2023-05-14T14:57:08.926Z,4.60
2023-05-14T14:59:56.835Z,4.25
2023-05-14T15:02:44.491Z,4.57
2023-05-14T15:05:31.977Z,4.75
2023-05-14T15:08:21.192Z,4.68
2023-05-14T15:11:09.215Z,5.05
2023-05-14T15:13:56.495Z,4.05
2023-05-14T15:16:43.879Z,4.32
2023-05-14T15:19:32.454Z,4.10
2023-05-14T15:22:19.904Z,4.43
2023-05-14T15:25:09.895Z,3.97
2023-05-14T15:27:57.961Z,4.78
2023-05-14T15:30:47.300Z,4.68
2023-05-14T15:33:38.041Z,3.95
2023-05-14T15:36:25.544Z,4.25
2023-05-14T15:39:13.033Z,3.45
2023-05-14T15:42:00.455Z,2.92
2023-05-14T15:44:47.696Z,3.53
2023-05-14T15:47:35.204Z,3.20
2023-05-14T15:50:25.813Z,3.13
2023-05-14T15:53:15.669Z,2.90
2023-05-14T15:56:03.169Z,3.13
2023-05-14T15:58:50.670Z,2.65
2023-05-14T16:01:41.556Z,2.83
2023-05-14T16:04:31.465Z,2.60
2023-05-14T16:07:18.688Z,2.47
2023-05-14T16:10:06.976Z,2.88
2023-05-14T16:12:54.501Z,2.45
2023-05-14T16:15:41.911Z,2.55
2023-05-14T16:18:31.363Z,2.67
2023-05-14T16:21:19.022Z,2.97
2023-05-14T16:24:07.131Z,3.15
2023-05-14T16:26:59.122Z,3.15
2023-05-14T16:29:47.036Z,3.83
2023-05-14T16:32:34.528Z,4.25
2023-05-14T16:35:21.963Z,4.03
2023-05-14T16:38:09.285Z,3.95
2023-05-14T16:40:58.190Z,3.88
2023-05-14T16:43:45.609Z,3.92
2023-05-14T16:46:34.896Z,4.30
2023-05-14T16:49:23.062Z,3.63
2023-05-14T16:52:10.481Z,4.20
2023-05-14T16:54:57.933Z,3.88
2023-05-14T16:57:45.746Z,3.42
2023-05-14T17:00:36.577Z,4.30
2023-05-14T17:03:23.898Z,4.97
2023-05-14T17:06:13.579Z,5.65
2023-05-14T17:09:01.184Z,5.10
2023-05-14T17:11:48.445Z,5.68
2023-05-14T17:14:36.019Z,5.32
2023-05-14T17:17:23.329Z,5.07
2023-05-14T17:20:11.150Z,5.45
2023-05-14T17:22:58.616Z,5.20
2023-05-14T17:25:46.278Z,5.03
2023-05-14T17:28:37.925Z,5.38
2023-05-14T17:31:25.397Z,5.57
2023-05-14T17:41:45.568Z,5.10
2023-05-14T17:44:32.914Z,5.25
2023-05-14T17:46:23.611Z,5.43
2023-05-14T17:47:58.983Z,4.97
2023-05-14T17:50:49.582Z,5.60
2023-05-14T17:53:36.727Z,5.22
2023-05-14T17:56:24.682Z,4.85
2023-05-14T17:59:31.179Z,5.50
2023-05-14T18:02:19.005Z,5.68
2023-05-14T18:05:07.014Z,7.78
2023-05-14T18:07:57.938Z,11.52
2023-05-14T18:10:45.627Z,9.10
2023-05-14T18:13:41.082Z,7.65
2023-05-14T18:16:28.723Z,7.68
2023-05-14T18:19:19.022Z,6.72
2023-05-14T18:22:06.804Z,6.40
2023-05-14T18:24:54.692Z,6.82
2023-05-14T18:27:45.660Z,6.63
2023-05-14T18:30:34.533Z,6.15
2023-05-14T18:33:23.279Z,6.80
2023-05-14T18:36:20.031Z,6.38
2023-05-14T18:39:09.756Z,6.40
2023-05-14T18:41:57.695Z,7.50
2023-05-14T18:44:45.648Z,7.28
2023-05-14T18:48:01.407Z,7.68
2023-05-14T18:50:49.182Z,7.88
2023-05-14T18:53:36.632Z,8.68
2023-05-14T18:56:25.697Z,9.45
2023-05-14T18:59:15.617Z,9.50
2023-05-14T19:02:06.154Z,9.60
2023-05-14T19:04:55.840Z,9.00
2023-05-14T19:07:51.913Z,8.82
2023-05-14T19:10:39.299Z,8.30
2023-05-14T19:13:28.805Z,9.60
2023-05-14T19:16:17.950Z,10.85
2023-05-14T19:19:05.541Z,10.63
2023-05-14T19:21:53.249Z,10.80
2023-05-14T19:24:40.926Z,10.73
2023-05-14T19:27:28.307Z,10.73
2023-05-14T19:30:15.760Z,10.15
2023-05-14T19:33:03.676Z,11.23
2023-05-14T19:35:53.879Z,14.48
2023-05-14T19:38:44.783Z,14.20
2023-05-14T19:41:32.411Z,13.77
2023-05-14T19:44:20.304Z,13.43
2023-05-14T19:47:09.358Z,12.80
2023-05-14T19:50:02.995Z,14.50
2023-05-14T19:52:56.974Z,14.38
2023-05-14T19:55:44.432Z,16.50
2023-05-14T19:58:33.014Z,16.38
2023-05-14T20:01:21.113Z,15.60
2023-05-14T20:04:09.037Z,15.88
2023-05-14T20:06:57.243Z,15.55
2023-05-14T20:09:47.073Z,15.68
2023-05-14T20:12:34.552Z,15.55
2023-05-14T20:15:22.359Z,14.43
2023-05-14T20:18:14.843Z,13.45
2023-05-14T20:21:03.002Z,13.07
2023-05-14T20:23:50.564Z,12.35
2023-05-14T20:26:38.034Z,10.73
2023-05-14T20:29:26.017Z,10.43
2023-05-14T20:32:13.582Z,10.05
2023-05-14T20:35:02.475Z,9.23
2023-05-14T20:37:50.397Z,9.30
2023-05-14T20:40:37.720Z,9.05
2023-05-14T20:43:27.800Z,8.38
2023-05-14T20:46:17.894Z,8.55
2023-05-14T20:49:05.320Z,8.80
2023-05-14T20:51:52.922Z,10.05
2023-05-14T20:54:40.620Z,11.45
2023-05-14T20:57:28.399Z,11.07
2023-05-14T21:00:16.210Z,11.02
2023-05-14T21:03:06.153Z,10.32
2023-05-14T21:05:56.018Z,9.98
2023-05-14T21:08:43.252Z,9.95
2023-05-14T21:11:30.728Z,10.10
2023-05-14T21:14:18.089Z,9.90
2023-05-14T21:17:17.790Z,10.93
2023-05-14T21:20:05.890Z,12.05
2023-05-14T21:22:53.324Z,12.88
2023-05-14T21:25:40.996Z,12.20
2023-05-14T21:28:29.210Z,13.63
2023-05-14T21:31:16.533Z,12.98
2023-05-14T21:34:03.888Z,13.32
2023-05-14T21:36:53.553Z,12.73
2023-05-14T21:39:40.987Z,13.00
2023-05-14T21:42:28.207Z,12.82
2023-05-14T21:45:15.412Z,12.00
2023-05-14T21:48:02.659Z,13.00
2023-05-14T21:50:49.986Z,16.60
2023-05-14T21:53:39.891Z,17.27
2023-05-14T21:56:28.543Z,24.65
2023-05-14T21:59:20.892Z,21.88
2023-05-14T22:02:08.317Z,19.85
2023-05-14T22:04:55.802Z,18.50
2023-05-14T22:07:43.048Z,18.67
2023-05-14T22:10:32.580Z,18.88
2023-05-14T22:13:19.846Z,18.60
2023-05-14T22:19:29.894Z,20.08
2023-05-14T22:22:17.290Z,18.63
2023-05-14T22:25:05.058Z,18.00
2023-05-14T22:27:52.353Z,19.35
2023-05-14T22:30:48.084Z,19.30
2023-05-14T22:33:46.443Z,18.60
2023-05-14T22:36:33.709Z,19.10
2023-05-14T22:39:21.610Z,19.60
2023-05-14T22:42:09.158Z,19.52
2023-05-14T22:44:56.350Z,19.77
2023-05-14T22:47:43.585Z,19.45
2023-05-14T22:50:30.832Z,17.65
2023-05-14T22:53:20.744Z,18.77
2023-05-14T22:56:08.048Z,17.63
2023-05-14T22:58:55.276Z,17.35
2023-05-14T23:01:45.232Z,17.50
2023-05-14T23:04:32.510Z,18.38
2023-05-14T23:07:21.849Z,17.40
2023-05-14T23:10:12.269Z,16.15
2023-05-14T23:12:59.491Z,15.50
2023-05-14T23:15:47.176Z,15.15
2023-05-14T23:18:38.246Z,15.13
2023-05-14T23:21:25.638Z,15.02
2023-05-14T23:24:15.160Z,14.80
2023-05-14T23:27:02.698Z,15.57
2023-05-14T23:29:50.801Z,17.67
2023-05-14T23:32:37.976Z,16.80
2023-05-14T23:35:30.127Z,17.13
2023-05-14T23:38:17.706Z,17.08
2023-05-14T23:41:04.893Z,17.45
2023-05-14T23:43:57.541Z,16.75
2023-05-14T23:49:36.413Z,15.27
2023-05-14T23:52:23.553Z,15.82
2023-05-14T23:55:10.706Z,16.52
2023-05-14T23:57:59.438Z,14.35
